EZS19TU LEMH-LFSB
Flight info
| Callsign | EZS19TU |
|---|---|
| Flight time | 1h 15m |
| Altitude | 34000 |
| Route | MEROS DCT LAPIT DCT CHELY DCT LUMAS DCT MAXIR DCT LUSOL DCT BODRU DCT OKTET DCT IRMAR DCT KINES DCT VANAS DCT MOBLO DCT LAMUR DCT KORED N871 KONOL Z59 LUMEL |
| Aircraft | A320/M-SDE3FGHIRWY/LB1 |
Departure
| Time | 2026-05-06 10:30 |
|---|---|
| Airport | Menorca Airport (LEMH) |
Arrival
| Time | 2026-05-06 11:45 |
|---|---|
| Airport | EuroAirport Basel–Mulhouse–Freiburg (LFSB) |
| Time | Latitude | Longitude | Altitude | Speed | Heading |
|---|---|---|---|---|---|
| 2026-05-06 09:56 | 39.86424 | 4.22396 | 287 ft | 0 kts | 99° |
| 2026-05-06 10:22 | 39.86427 | 4.22380 | 289 ft | 3 kts | 99° |
| 2026-05-06 10:22 | 39.86430 | 4.22354 | 290 ft | 3 kts | 99° |
| 2026-05-06 10:22 | 39.86433 | 4.22329 | 288 ft | 3 kts | 116° |
| 2026-05-06 10:23 | 39.86442 | 4.22313 | 294 ft | 2 kts | 180° |
| 2026-05-06 10:23 | 39.86453 | 4.22314 | 294 ft | 2 kts | 189° |
| 2026-05-06 10:23 | 39.86466 | 4.22317 | 294 ft | 1 kts | 189° |
| 2026-05-06 10:26 | 39.86404 | 4.22303 | 288 ft | 19 kts | 190° |
| 2026-05-06 10:26 | 39.86239 | 4.22269 | 288 ft | 23 kts | 189° |
| 2026-05-06 10:26 | 39.86184 | 4.22212 | 293 ft | 6 kts | 279° |
| 2026-05-06 10:27 | 39.86184 | 4.22097 | 294 ft | 15 kts | 233° |
| 2026-05-06 10:27 | 39.86089 | 4.22069 | 295 ft | 18 kts | 190° |
| 2026-05-06 10:27 | 39.85915 | 4.22032 | 301 ft | 33 kts | 188° |
| 2026-05-06 10:27 | 39.85644 | 4.21978 | 292 ft | 46 kts | 188° |
| 2026-05-06 10:28 | 39.85297 | 4.21907 | 281 ft | 54 kts | 188° |
| 2026-05-06 10:28 | 39.85066 | 4.21832 | 281 ft | 16 kts | 233° |
| 2026-05-06 10:28 | 39.85075 | 4.21764 | 284 ft | 5 kts | 301° |
| 2026-05-06 10:28 | 39.85112 | 4.21706 | 284 ft | 13 kts | 312° |
| 2026-05-06 10:29 | 39.85191 | 4.21641 | 286 ft | 13 kts | 4° |
| 2026-05-06 10:29 | 39.85310 | 4.21670 | 285 ft | 31 kts | 9° |
| 2026-05-06 10:29 | 39.85782 | 4.21768 | 297 ft | 102 kts | 9° |
| 2026-05-06 10:29 | 39.86669 | 4.21967 | 315 ft | 155 kts | 15° |
| 2026-05-06 10:30 | 39.87746 | 4.22213 | 926 ft | 156 kts | 12° |
| 2026-05-06 10:30 | 39.88837 | 4.22452 | 1599 ft | 162 kts | 9° |
| 2026-05-06 10:30 | 39.89995 | 4.22697 | 2174 ft | 177 kts | 8° |
| 2026-05-06 10:30 | 39.91259 | 4.22948 | 2635 ft | 196 kts | 8° |
| 2026-05-06 10:31 | 39.92679 | 4.23239 | 3046 ft | 219 kts | 8° |
| 2026-05-06 10:31 | 39.94271 | 4.23571 | 3499 ft | 244 kts | 8° |
| 2026-05-06 10:31 | 39.96033 | 4.23942 | 4066 ft | 267 kts | 8° |
| 2026-05-06 10:31 | 39.97905 | 4.24337 | 4976 ft | 275 kts | 8° |
| 2026-05-06 10:32 | 39.99794 | 4.24738 | 5925 ft | 280 kts | 7° |
| 2026-05-06 10:32 | 40.01764 | 4.25156 | 6855 ft | 286 kts | 7° |
| 2026-05-06 10:32 | 40.03715 | 4.25597 | 7708 ft | 291 kts | 8° |
| 2026-05-06 10:32 | 40.05725 | 4.26074 | 8564 ft | 296 kts | 8° |
| 2026-05-06 10:33 | 40.07767 | 4.26566 | 9439 ft | 301 kts | 8° |
| 2026-05-06 10:33 | 40.09852 | 4.27068 | 10255 ft | 306 kts | 7° |
| 2026-05-06 10:33 | 40.11986 | 4.27578 | 10819 ft | 321 kts | 7° |
| 2026-05-06 10:33 | 40.14267 | 4.28120 | 11102 ft | 345 kts | 7° |
| 2026-05-06 10:34 | 40.16669 | 4.28691 | 11474 ft | 363 kts | 7° |
| 2026-05-06 10:34 | 40.19182 | 4.29289 | 12148 ft | 369 kts | 7° |
| 2026-05-06 10:34 | 40.21730 | 4.29894 | 12888 ft | 374 kts | 7° |
| 2026-05-06 10:34 | 40.24314 | 4.30508 | 13623 ft | 379 kts | 7° |
| 2026-05-06 10:35 | 40.26928 | 4.31130 | 14286 ft | 384 kts | 7° |
| 2026-05-06 10:35 | 40.29570 | 4.31760 | 14941 ft | 388 kts | 6° |
| 2026-05-06 10:35 | 40.32240 | 4.32399 | 15587 ft | 392 kts | 6° |
| 2026-05-06 10:35 | 40.34941 | 4.33047 | 16240 ft | 396 kts | 6° |
| 2026-05-06 10:36 | 40.37631 | 4.33693 | 16860 ft | 400 kts | 6° |
| 2026-05-06 10:36 | 40.40390 | 4.34355 | 17493 ft | 405 kts | 6° |
| 2026-05-06 10:36 | 40.43175 | 4.35023 | 18092 ft | 409 kts | 6° |
| 2026-05-06 10:36 | 40.45997 | 4.35696 | 18637 ft | 413 kts | 6° |
| 2026-05-06 10:37 | 40.48846 | 4.36375 | 19162 ft | 417 kts | 6° |
| 2026-05-06 10:37 | 40.51720 | 4.37062 | 19675 ft | 421 kts | 6° |
| 2026-05-06 10:37 | 40.54621 | 4.37755 | 20185 ft | 425 kts | 6° |
| 2026-05-06 10:37 | 40.57553 | 4.38453 | 20700 ft | 429 kts | 5° |
| 2026-05-06 10:38 | 40.60468 | 4.39148 | 21186 ft | 433 kts | 5° |
| 2026-05-06 10:38 | 40.63446 | 4.39858 | 21690 ft | 436 kts | 5° |
| 2026-05-06 10:38 | 40.66452 | 4.40575 | 22174 ft | 440 kts | 5° |
| 2026-05-06 10:38 | 40.69480 | 4.41299 | 22667 ft | 444 kts | 5° |
| 2026-05-06 10:39 | 40.72535 | 4.42033 | 23145 ft | 447 kts | 5° |
| 2026-05-06 10:39 | 40.75612 | 4.42774 | 23606 ft | 451 kts | 5° |
| 2026-05-06 10:39 | 40.78713 | 4.43524 | 23993 ft | 454 kts | 5° |
| 2026-05-06 10:39 | 40.81793 | 4.44270 | 24375 ft | 457 kts | 5° |
| 2026-05-06 10:40 | 40.84935 | 4.45030 | 24750 ft | 460 kts | 5° |
| 2026-05-06 10:40 | 40.88103 | 4.45795 | 25125 ft | 464 kts | 5° |
| 2026-05-06 10:40 | 40.91288 | 4.46564 | 25494 ft | 466 kts | 5° |
| 2026-05-06 10:40 | 40.94502 | 4.47340 | 25866 ft | 470 kts | 5° |
| 2026-05-06 10:41 | 40.97723 | 4.48117 | 26222 ft | 473 kts | 5° |
| 2026-05-06 10:41 | 41.00973 | 4.48905 | 26584 ft | 476 kts | 5° |
| 2026-05-06 10:41 | 41.04203 | 4.49690 | 26939 ft | 479 kts | 4° |
| 2026-05-06 10:41 | 41.07497 | 4.50492 | 27288 ft | 482 kts | 4° |
| 2026-05-06 10:42 | 41.10813 | 4.51295 | 27635 ft | 485 kts | 4° |
| 2026-05-06 10:42 | 41.14149 | 4.52105 | 27976 ft | 488 kts | 4° |
| 2026-05-06 10:42 | 41.17507 | 4.52924 | 28311 ft | 491 kts | 4° |
| 2026-05-06 10:42 | 41.20838 | 4.53739 | 28636 ft | 494 kts | 4° |
| 2026-05-06 10:43 | 41.24229 | 4.54569 | 28950 ft | 496 kts | 4° |
| 2026-05-06 10:43 | 41.27644 | 4.55406 | 29259 ft | 499 kts | 4° |
| 2026-05-06 10:43 | 41.31070 | 4.56244 | 29567 ft | 501 kts | 4° |
| 2026-05-06 10:44 | 41.37980 | 4.57936 | 30159 ft | 506 kts | 4° |
| 2026-05-06 10:44 | 41.41447 | 4.58789 | 30520 ft | 506 kts | 4° |
| 2026-05-06 10:44 | 41.44860 | 4.59634 | 30895 ft | 505 kts | 4° |
| 2026-05-06 10:44 | 41.48320 | 4.60491 | 31267 ft | 504 kts | 4° |
| 2026-05-06 10:45 | 41.51768 | 4.61345 | 31636 ft | 504 kts | 4° |
| 2026-05-06 10:45 | 41.55209 | 4.62194 | 31998 ft | 503 kts | 4° |
| 2026-05-06 10:45 | 41.58655 | 4.63040 | 32364 ft | 503 kts | 4° |
| 2026-05-06 10:45 | 41.62093 | 4.63887 | 32742 ft | 502 kts | 4° |
| 2026-05-06 10:46 | 41.65536 | 4.64736 | 33104 ft | 501 kts | 4° |
| 2026-05-06 10:46 | 41.68968 | 4.65586 | 33480 ft | 501 kts | 4° |
| 2026-05-06 10:46 | 41.72375 | 4.66765 | 33821 ft | 509 kts | 13° |
| 2026-05-06 10:46 | 41.75660 | 4.68603 | 33971 ft | 515 kts | 22° |
| 2026-05-06 10:47 | 41.78774 | 4.71014 | 33980 ft | 517 kts | 27° |
| 2026-05-06 10:47 | 41.84931 | 4.75990 | 33983 ft | 516 kts | 27° |
| 2026-05-06 10:48 | 41.91061 | 4.80921 | 33992 ft | 516 kts | 27° |
| 2026-05-06 10:48 | 41.97218 | 4.85878 | 33983 ft | 515 kts | 27° |
| 2026-05-06 10:49 | 42.03364 | 4.90850 | 33991 ft | 515 kts | 27° |
| 2026-05-06 10:49 | 42.09502 | 4.95831 | 34007 ft | 515 kts | 27° |
| 2026-05-06 10:50 | 42.15609 | 5.00796 | 33991 ft | 514 kts | 27° |
| 2026-05-06 10:50 | 42.21738 | 5.05788 | 33990 ft | 514 kts | 27° |
| 2026-05-06 10:51 | 42.27853 | 5.10786 | 33992 ft | 513 kts | 27° |
| 2026-05-06 10:51 | 42.33921 | 5.15750 | 33988 ft | 512 kts | 27° |
| 2026-05-06 10:52 | 42.40014 | 5.20746 | 33988 ft | 511 kts | 28° |
| 2026-05-06 10:52 | 42.46098 | 5.25745 | 33986 ft | 510 kts | 28° |
| 2026-05-06 10:53 | 42.52122 | 5.30715 | 33985 ft | 509 kts | 28° |
| 2026-05-06 10:53 | 42.58174 | 5.35714 | 33977 ft | 508 kts | 28° |
| 2026-05-06 10:54 | 42.64228 | 5.40717 | 33975 ft | 508 kts | 28° |
| 2026-05-06 10:54 | 42.70218 | 5.45691 | 33971 ft | 507 kts | 28° |
| 2026-05-06 10:55 | 42.76229 | 5.50694 | 33967 ft | 506 kts | 28° |
| 2026-05-06 10:55 | 42.82240 | 5.55698 | 33959 ft | 506 kts | 28° |
| 2026-05-06 10:56 | 42.88257 | 5.60713 | 33959 ft | 506 kts | 28° |
| 2026-05-06 10:56 | 42.94218 | 5.65703 | 33956 ft | 505 kts | 28° |
| 2026-05-06 10:57 | 43.00219 | 5.70751 | 33953 ft | 505 kts | 29° |
| 2026-05-06 10:57 | 43.06206 | 5.75791 | 33945 ft | 505 kts | 29° |
| 2026-05-06 10:58 | 43.12154 | 5.80811 | 33944 ft | 504 kts | 29° |
| 2026-05-06 10:58 | 43.18130 | 5.85862 | 33933 ft | 504 kts | 29° |
| 2026-05-06 10:59 | 43.24102 | 5.90914 | 33929 ft | 504 kts | 29° |
| 2026-05-06 10:59 | 43.30076 | 5.95975 | 33913 ft | 504 kts | 29° |
| 2026-05-06 11:00 | 43.36033 | 6.00922 | 33901 ft | 502 kts | 24° |
| 2026-05-06 11:00 | 43.42549 | 6.04093 | 33896 ft | 492 kts | 6° |
| 2026-05-06 11:01 | 43.49303 | 6.05047 | 33897 ft | 486 kts | 358° |
| 2026-05-06 11:01 | 43.55862 | 6.05689 | 33888 ft | 487 kts | 358° |
| 2026-05-06 11:02 | 43.62641 | 6.06371 | 33890 ft | 488 kts | 358° |
| 2026-05-06 11:02 | 43.69423 | 6.07062 | 33892 ft | 489 kts | 358° |
| 2026-05-06 11:03 | 43.76227 | 6.08174 | 33894 ft | 497 kts | 9° |
| 2026-05-06 11:03 | 43.82690 | 6.11621 | 33882 ft | 506 kts | 23° |
| 2026-05-06 11:04 | 43.89018 | 6.15944 | 33885 ft | 507 kts | 22° |
| 2026-05-06 11:04 | 43.95353 | 6.20256 | 33898 ft | 508 kts | 22° |
| 2026-05-06 11:05 | 44.01708 | 6.24594 | 33892 ft | 509 kts | 23° |
| 2026-05-06 11:05 | 44.08028 | 6.28928 | 33896 ft | 509 kts | 23° |
| 2026-05-06 11:06 | 44.14395 | 6.33308 | 33896 ft | 510 kts | 23° |
| 2026-05-06 11:06 | 44.20770 | 6.37698 | 33890 ft | 511 kts | 23° |
| 2026-05-06 11:07 | 44.27143 | 6.42097 | 33883 ft | 511 kts | 23° |
| 2026-05-06 11:07 | 44.33479 | 6.46484 | 33889 ft | 511 kts | 23° |
| 2026-05-06 11:08 | 44.39855 | 6.50912 | 33884 ft | 511 kts | 23° |
| 2026-05-06 11:08 | 44.46234 | 6.55362 | 33886 ft | 511 kts | 24° |
| 2026-05-06 11:09 | 44.52567 | 6.59793 | 33884 ft | 512 kts | 23° |
| 2026-05-06 11:09 | 44.58941 | 6.64245 | 33877 ft | 511 kts | 24° |
| 2026-05-06 11:10 | 44.64248 | 6.67955 | 33872 ft | 512 kts | 24° |
| 2026-05-06 11:10 | 44.70622 | 6.72427 | 33873 ft | 512 kts | 24° |
| 2026-05-06 11:11 | 44.77080 | 6.76641 | 33864 ft | 508 kts | 15° |
| 2026-05-06 11:11 | 44.83929 | 6.78562 | 33856 ft | 497 kts | 358° |
| 2026-05-06 11:12 | 44.90778 | 6.78332 | 33866 ft | 491 kts | 351° |
| 2026-05-06 11:12 | 44.97555 | 6.77885 | 33865 ft | 490 kts | 352° |
| 2026-05-06 11:13 | 45.04390 | 6.77440 | 33870 ft | 491 kts | 352° |
| 2026-05-06 11:13 | 45.11215 | 6.76987 | 33878 ft | 490 kts | 352° |
| 2026-05-06 11:14 | 45.17992 | 6.76530 | 33868 ft | 489 kts | 352° |
| 2026-05-06 11:14 | 45.24803 | 6.76081 | 33873 ft | 490 kts | 352° |
| 2026-05-06 11:15 | 45.31627 | 6.75631 | 33883 ft | 490 kts | 352° |
| 2026-05-06 11:15 | 45.38439 | 6.75170 | 33885 ft | 489 kts | 352° |
| 2026-05-06 11:16 | 45.45262 | 6.74713 | 33890 ft | 490 kts | 352° |
| 2026-05-06 11:16 | 45.52028 | 6.74259 | 33908 ft | 490 kts | 352° |
| 2026-05-06 11:17 | 45.58861 | 6.73782 | 33917 ft | 490 kts | 352° |
| 2026-05-06 11:17 | 45.65678 | 6.73314 | 33909 ft | 490 kts | 352° |
| 2026-05-06 11:18 | 45.72483 | 6.72860 | 33910 ft | 490 kts | 352° |
| 2026-05-06 11:18 | 45.79270 | 6.72878 | 33912 ft | 495 kts | 4° |
| 2026-05-06 11:19 | 45.85944 | 6.75499 | 33907 ft | 501 kts | 22° |
| 2026-05-06 11:19 | 45.92305 | 6.79650 | 33909 ft | 501 kts | 23° |
| 2026-05-06 11:20 | 45.98618 | 6.83785 | 33897 ft | 501 kts | 23° |
| 2026-05-06 11:20 | 46.04965 | 6.87943 | 33896 ft | 500 kts | 23° |
| 2026-05-06 11:21 | 46.11305 | 6.92108 | 33898 ft | 499 kts | 23° |
| 2026-05-06 11:21 | 46.17622 | 6.96282 | 33886 ft | 498 kts | 24° |
| 2026-05-06 11:22 | 46.23914 | 7.00441 | 33893 ft | 497 kts | 23° |
| 2026-05-06 11:22 | 46.30156 | 7.04569 | 33896 ft | 496 kts | 23° |
| 2026-05-06 11:23 | 46.36433 | 7.08737 | 33898 ft | 494 kts | 24° |
| 2026-05-06 11:23 | 46.42673 | 7.12894 | 33882 ft | 493 kts | 24° |
| 2026-05-06 11:24 | 46.48913 | 7.17064 | 33864 ft | 492 kts | 24° |
| 2026-05-06 11:24 | 46.55132 | 7.21229 | 33860 ft | 492 kts | 24° |
| 2026-05-06 11:25 | 46.61328 | 7.25385 | 33882 ft | 492 kts | 24° |
| 2026-05-06 11:25 | 46.64383 | 7.27430 | 33670 ft | 493 kts | 24° |
| 2026-05-06 11:25 | 46.67515 | 7.29522 | 32377 ft | 496 kts | 25° |
| 2026-05-06 11:25 | 46.70642 | 7.31634 | 31090 ft | 495 kts | 25° |
| 2026-05-06 11:26 | 46.73741 | 7.33737 | 30070 ft | 487 kts | 26° |
| 2026-05-06 11:26 | 46.76788 | 7.35808 | 29252 ft | 479 kts | 25° |
| 2026-05-06 11:26 | 46.79722 | 7.37797 | 28593 ft | 463 kts | 25° |
| 2026-05-06 11:26 | 46.82544 | 7.39908 | 27902 ft | 451 kts | 33° |
| 2026-05-06 11:27 | 46.85093 | 7.42554 | 27223 ft | 448 kts | 42° |
| 2026-05-06 11:27 | 46.87339 | 7.45695 | 26509 ft | 444 kts | 51° |
| 2026-05-06 11:27 | 46.89285 | 7.49170 | 25809 ft | 441 kts | 54° |
| 2026-05-06 11:27 | 46.91191 | 7.52682 | 25113 ft | 439 kts | 55° |
| 2026-05-06 11:28 | 46.93072 | 7.56117 | 24422 ft | 438 kts | 52° |
| 2026-05-06 11:28 | 46.95369 | 7.59047 | 23733 ft | 442 kts | 34° |
| 2026-05-06 11:28 | 46.98180 | 7.60879 | 22988 ft | 444 kts | 16° |
| 2026-05-06 11:28 | 47.01233 | 7.61406 | 22332 ft | 440 kts | 358° |
| 2026-05-06 11:29 | 47.04222 | 7.60625 | 21775 ft | 433 kts | 340° |
| 2026-05-06 11:29 | 47.06876 | 7.58664 | 21227 ft | 425 kts | 322° |
| 2026-05-06 11:29 | 47.09146 | 7.55906 | 20687 ft | 421 kts | 317° |
| 2026-05-06 11:29 | 47.11352 | 7.53095 | 20162 ft | 418 kts | 317° |
| 2026-05-06 11:30 | 47.13507 | 7.50343 | 19636 ft | 414 kts | 317° |
| 2026-05-06 11:30 | 47.15672 | 7.47579 | 19108 ft | 409 kts | 317° |
| 2026-05-06 11:30 | 47.17816 | 7.44842 | 18573 ft | 406 kts | 317° |
| 2026-05-06 11:30 | 47.19947 | 7.42126 | 17989 ft | 404 kts | 317° |
| 2026-05-06 11:31 | 47.22064 | 7.39428 | 17418 ft | 400 kts | 317° |
| 2026-05-06 11:31 | 47.24154 | 7.36755 | 16853 ft | 396 kts | 317° |
| 2026-05-06 11:31 | 47.26224 | 7.34094 | 16288 ft | 393 kts | 316° |
| 2026-05-06 11:31 | 47.28273 | 7.31453 | 15715 ft | 390 kts | 317° |
| 2026-05-06 11:32 | 47.30315 | 7.28822 | 15103 ft | 388 kts | 316° |
| 2026-05-06 11:32 | 47.32347 | 7.26208 | 14550 ft | 386 kts | 316° |
| 2026-05-06 11:32 | 47.34366 | 7.23609 | 14020 ft | 383 kts | 316° |
| 2026-05-06 11:32 | 47.36369 | 7.21028 | 13395 ft | 382 kts | 316° |
| 2026-05-06 11:33 | 47.38314 | 7.18547 | 12716 ft | 368 kts | 319° |
| 2026-05-06 11:33 | 47.40444 | 7.16581 | 12129 ft | 355 kts | 332° |
| 2026-05-06 11:33 | 47.42736 | 7.15399 | 11574 ft | 344 kts | 345° |
| 2026-05-06 11:33 | 47.45075 | 7.14964 | 11025 ft | 334 kts | 355° |
| 2026-05-06 11:34 | 47.47367 | 7.14763 | 10484 ft | 325 kts | 355° |
| 2026-05-06 11:34 | 47.49568 | 7.14561 | 10191 ft | 308 kts | 355° |
| 2026-05-06 11:34 | 47.51667 | 7.14364 | 9918 ft | 297 kts | 354° |
| 2026-05-06 11:34 | 47.53703 | 7.14168 | 9746 ft | 296 kts | 354° |
| 2026-05-06 11:35 | 47.55752 | 7.13968 | 9612 ft | 295 kts | 355° |
| 2026-05-06 11:35 | 47.57800 | 7.13766 | 9476 ft | 294 kts | 354° |
| 2026-05-06 11:35 | 47.59844 | 7.13564 | 9237 ft | 295 kts | 354° |
| 2026-05-06 11:35 | 47.61855 | 7.13369 | 8917 ft | 279 kts | 354° |
| 2026-05-06 11:36 | 47.63735 | 7.13190 | 8674 ft | 263 kts | 354° |
| 2026-05-06 11:36 | 47.65541 | 7.13017 | 8304 ft | 254 kts | 354° |
| 2026-05-06 11:36 | 47.67263 | 7.13300 | 8158 ft | 258 kts | 19° |
| 2026-05-06 11:36 | 47.68798 | 7.14687 | 7876 ft | 258 kts | 37° |
| 2026-05-06 11:37 | 47.70204 | 7.16349 | 7561 ft | 258 kts | 38° |
| 2026-05-06 11:37 | 47.71596 | 7.18013 | 7236 ft | 256 kts | 38° |
| 2026-05-06 11:37 | 47.72980 | 7.19671 | 7010 ft | 255 kts | 37° |
| 2026-05-06 11:37 | 47.74357 | 7.21318 | 6732 ft | 253 kts | 38° |
| 2026-05-06 11:38 | 47.75715 | 7.22938 | 6411 ft | 252 kts | 37° |
| 2026-05-06 11:38 | 47.77080 | 7.24565 | 6078 ft | 251 kts | 37° |
| 2026-05-06 11:38 | 47.78440 | 7.26186 | 5759 ft | 249 kts | 37° |
| 2026-05-06 11:38 | 47.79791 | 7.27801 | 5446 ft | 248 kts | 37° |
| 2026-05-06 11:39 | 47.81141 | 7.29413 | 5125 ft | 248 kts | 38° |
| 2026-05-06 11:39 | 47.82455 | 7.31040 | 4954 ft | 241 kts | 45° |
| 2026-05-06 11:39 | 47.83174 | 7.33163 | 4895 ft | 227 kts | 85° |
| 2026-05-06 11:39 | 47.82922 | 7.35343 | 4845 ft | 213 kts | 122° |
| 2026-05-06 11:40 | 47.81930 | 7.36871 | 4780 ft | 204 kts | 155° |
| 2026-05-06 11:40 | 47.80656 | 7.37785 | 4717 ft | 203 kts | 159° |
| 2026-05-06 11:40 | 47.79378 | 7.38672 | 4663 ft | 200 kts | 159° |
| 2026-05-06 11:40 | 47.78125 | 7.39549 | 4445 ft | 199 kts | 158° |
| 2026-05-06 11:41 | 47.76874 | 7.40425 | 4225 ft | 196 kts | 158° |
| 2026-05-06 11:41 | 47.75654 | 7.41281 | 3950 ft | 192 kts | 159° |
| 2026-05-06 11:41 | 47.74458 | 7.42120 | 3682 ft | 188 kts | 159° |
| 2026-05-06 11:41 | 47.73309 | 7.42925 | 3450 ft | 181 kts | 159° |
| 2026-05-06 11:42 | 47.72202 | 7.43701 | 3205 ft | 172 kts | 159° |
| 2026-05-06 11:42 | 47.71135 | 7.44447 | 2977 ft | 167 kts | 160° |
| 2026-05-06 11:42 | 47.70092 | 7.45176 | 2752 ft | 166 kts | 159° |
| 2026-05-06 11:42 | 47.69050 | 7.45903 | 2534 ft | 166 kts | 158° |
| 2026-05-06 11:43 | 47.68003 | 7.46635 | 2307 ft | 166 kts | 159° |
| 2026-05-06 11:43 | 47.66965 | 7.47360 | 2093 ft | 159 kts | 159° |
| 2026-05-06 11:43 | 47.66012 | 7.48028 | 1856 ft | 146 kts | 159° |
| 2026-05-06 11:44 | 47.64241 | 7.49263 | 1445 ft | 138 kts | 158° |
| 2026-05-06 11:44 | 47.63391 | 7.49854 | 1271 ft | 136 kts | 158° |
| 2026-05-06 11:44 | 47.62536 | 7.50457 | 1075 ft | 136 kts | 158° |
| 2026-05-06 11:44 | 47.61671 | 7.51057 | 900 ft | 138 kts | 158° |
| 2026-05-06 11:45 | 47.60877 | 7.51608 | 875 ft | 106 kts | 155° |
| 2026-05-06 11:45 | 47.60367 | 7.51961 | 882 ft | 56 kts | 155° |
| 2026-05-06 11:45 | 47.60117 | 7.52144 | 890 ft | 19 kts | 142° |
| 2026-05-06 11:45 | 47.60120 | 7.52238 | 891 ft | 6 kts | 50° |
| 2026-05-06 11:46 | 47.60150 | 7.52312 | 889 ft | 14 kts | 64° |
| 2026-05-06 11:46 | 47.60185 | 7.52424 | 889 ft | 8 kts | 64° |
| 2026-05-06 11:46 | 47.60187 | 7.52467 | 891 ft | 4 kts | 107° |
| 2026-05-06 11:46 | 47.60139 | 7.52514 | 892 ft | 9 kts | 159° |
| 2026-05-06 11:47 | 47.60089 | 7.52547 | 892 ft | 9 kts | 154° |
| 2026-05-06 11:47 | 47.60069 | 7.52606 | 894 ft | 5 kts | 63° |
| 2026-05-06 11:47 | 47.60089 | 7.52701 | 894 ft | 9 kts | 119° |
| 2026-05-06 11:47 | 47.60061 | 7.52765 | 894 ft | 6 kts | 120° |
| 2026-05-06 11:48 | 47.60035 | 7.52838 | 894 ft | 10 kts | 111° |
| 2026-05-06 11:48 | 47.60006 | 7.52916 | 894 ft | 7 kts | 140° |
| 2026-05-06 11:48 | 47.59973 | 7.52939 | 894 ft | 0 kts | 155° |
| 2026-05-06 11:48 | 47.59972 | 7.52939 | 894 ft | 0 kts | 155° |
| 2026-05-06 11:49 | 47.59970 | 7.52940 | 894 ft | 0 kts | 155° |
| 2026-05-06 11:49 | 47.59967 | 7.52942 | 894 ft | 0 kts | 155° |